Time;durP1;ratioP1;P1;durP2;ratioP2;P2;SDS_P1;SDS_P2;PMS_P1;PMS_P2;Temp;Humidity;BMP_temperature;BMP_pressure;BME280_temperature;BME280_humidity;BME280_pressure;Samples;Min_cycle;Max_cycle;Signal;HPM_P1;HPM_P2
2023/10/12 00:00:24;;;;;;;7.80;3.83;;;;;;;;;;5026709;28;20501;-59
2023/10/12 00:02:52;;;;;;;11.25;4.05;;;;;;;;;;5026849;28;20037;-59
2023/10/12 00:05:19;;;;;;;9.77;4.38;;;;;;;;;;5024091;28;20045;-59
2023/10/12 00:07:49;;;;;;;9.20;4.38;;;;;;;;;;5024362;28;20033;-59
2023/10/12 00:12:46;;;;;;;10.05;4.40;;;;;;;;;;5026028;28;20037;-59
2023/10/12 00:15:25;;;;;;;10.07;4.38;;;;;;;;;;5029571;28;20036;-58
2023/10/12 00:17:53;;;;;;;11.27;4.05;;;;;;;;;;5027176;28;20436;-58
2023/10/12 00:20:38;;;;;;;12.60;4.35;;;;;;;;;;5026861;28;20030;-58
2023/10/12 00:23:09;;;;;;;8.13;4.15;;;;;;;;;;5027901;28;20052;-57
2023/10/12 00:25:47;;;;;;;9.10;4.22;;;;;;;;;;5026927;28;20040;-59
2023/10/12 00:28:21;;;;;;;10.05;4.18;;;;;;;;;;5027946;28;20443;-58
2023/10/12 00:30:54;;;;;;;12.57;4.45;;;;;;;;;;5022703;28;20044;-58
2023/10/12 00:33:21;;;;;;;11.80;4.20;;;;;;;;;;5027673;28;20050;-58
2023/10/12 00:35:49;;;;;;;7.85;4.60;;;;;;;;;;5026059;28;20033;-58
2023/10/12 00:38:18;;;;;;;9.02;4.72;;;;;;;;;;5026518;28;20493;-58
2023/10/12 00:40:58;;;;;;;9.40;4.60;;;;;;;;;;5027212;28;20053;-59
2023/10/12 00:43:40;;;;;;;9.05;4.20;;;;;;;;;;5019857;28;20427;-59
2023/10/12 00:46:40;;;;;;;9.55;3.95;;;;;;;;;;5018542;28;20112;-59
2023/10/12 00:49:20;;;;;;;8.25;4.22;;;;;;;;;;5019521;28;20052;-60
2023/10/12 00:51:51;;;;;;;8.73;4.15;;;;;;;;;;5023911;28;20037;-59
2023/10/12 00:54:32;;;;;;;9.32;4.03;;;;;;;;;;5025732;28;20048;-59
2023/10/12 00:57:02;;;;;;;13.38;4.20;;;;;;;;;;5024261;28;20041;-59
2023/10/12 00:59:34;;;;;;;;;;;;;;;;;;5020060;28;20056;-58
2023/10/12 01:02:02;;;;;;;11.95;4.45;;;;;;;;;;5024207;28;19917;-60
2023/10/12 01:04:30;;;;;;;11.20;4.57;;;;;;;;;;5025312;28;20042;-60
2023/10/12 01:06:59;;;;;;;8.60;4.15;;;;;;;;;;5021829;28;20037;-58
2023/10/12 01:09:29;;;;;;;11.23;4.65;;;;;;;;;;5027756;28;20033;-59
2023/10/12 01:12:00;;;;;;;8.93;4.40;;;;;;;;;;5025108;28;20037;-59
2023/10/12 01:14:27;;;;;;;9.15;4.35;;;;;;;;;;5026546;28;20052;-58
2023/10/12 01:16:57;;;;;;;8.93;4.30;;;;;;;;;;5024915;28;20509;-58
2023/10/12 01:19:31;;;;;;;9.25;5.18;;;;;;;;;;5013520;28;20041;-58
2023/10/12 01:22:08;;;;;;;7.93;4.43;;;;;;;;;;5026271;28;20036;-59
2023/10/12 01:24:36;;;;;;;9.48;4.40;;;;;;;;;;5023161;28;20049;-58
2023/10/12 01:27:03;;;;;;;11.38;5.05;;;;;;;;;;5027072;28;20053;-58
2023/10/12 01:29:31;;;;;;;10.00;4.20;;;;;;;;;;5027874;28;20062;-59
2023/10/12 01:34:44;;;;;;;8.10;4.78;;;;;;;;;;5027383;28;20037;-59
2023/10/12 01:37:22;;;;;;;8.38;4.35;;;;;;;;;;5023613;28;20037;-59
2023/10/12 01:45:19;;;;;;;9.68;4.32;;;;;;;;;;5026869;28;20045;-60
2023/10/12 01:47:50;;;;;;;10.65;4.65;;;;;;;;;;5030291;28;20033;-60
2023/10/12 01:50:17;;;;;;;10.13;4.38;;;;;;;;;;5030711;28;20060;-60
2023/10/12 01:52:46;;;;;;;9.63;4.65;;;;;;;;;;5037027;28;20034;-60
2023/10/12 01:55:19;;;;;;;8.90;3.97;;;;;;;;;;5033917;28;20061;-60
2023/10/12 01:57:54;;;;;;;9.75;4.63;;;;;;;;;;5029023;28;20029;-60
2023/10/12 02:00:26;;;;;;;9.95;4.72;;;;;;;;;;5031463;28;20041;-60
2023/10/12 02:05:58;;;;;;;8.98;4.40;;;;;;;;;;5019943;28;20076;-59
2023/10/12 02:08:32;;;;;;;9.43;4.75;;;;;;;;;;5021184;28;20417;-59
2023/10/12 02:11:06;;;;;;;9.52;4.10;;;;;;;;;;5026524;28;20037;-59
2023/10/12 02:13:36;;;;;;;12.63;4.43;;;;;;;;;;5025100;28;20048;-58
2023/10/12 02:16:03;;;;;;;11.30;4.38;;;;;;;;;;5027372;28;20416;-59
2023/10/12 02:18:34;;;;;;;11.30;4.15;;;;;;;;;;5022188;28;20527;-59
2023/10/12 02:21:11;;;;;;;9.15;4.13;;;;;;;;;;5028734;28;20061;-59
2023/10/12 02:23:40;;;;;;;8.90;4.13;;;;;;;;;;5024540;28;20048;-59
2023/10/12 02:26:28;;;;;;;10.30;4.13;;;;;;;;;;5030461;28;20045;-59
2023/10/12 02:34:27;;;;;;;10.80;4.03;;;;;;;;;;5029478;28;20397;-59
2023/10/12 02:39:41;;;;;;;10.55;4.50;;;;;;;;;;5025586;28;20042;-59
2023/10/12 02:42:17;;;;;;;8.73;4.20;;;;;;;;;;5021925;28;20707;-59
2023/10/12 02:45:09;;;;;;;9.30;4.28;;;;;;;;;;5023264;28;20500;-59
2023/10/12 02:47:41;;;;;;;8.52;4.00;;;;;;;;;;5034357;28;20041;-58
2023/10/12 02:52:36;;;;;;;7.65;4.10;;;;;;;;;;5022872;28;20037;-58
2023/10/12 02:57:54;;;;;;;9.55;4.18;;;;;;;;;;5029549;28;20417;-59
2023/10/12 03:00:23;;;;;;;13.45;4.32;;;;;;;;;;5025520;28;20037;-58
2023/10/12 03:02:53;;;;;;;11.10;4.68;;;;;;;;;;5027150;28;20537;-58
2023/10/12 03:05:31;;;;;;;11.32;4.32;;;;;;;;;;5028271;28;20390;-58
2023/10/12 03:08:06;;;;;;;11.73;4.88;;;;;;;;;;5026752;28;20036;-58
2023/10/12 03:10:32;;;;;;;10.05;4.35;;;;;;;;;;5024493;28;20056;-58
2023/10/12 03:13:04;;;;;;;13.15;4.70;;;;;;;;;;5027692;28;20178;-58
2023/10/12 03:15:45;;;;;;;11.02;5.15;;;;;;;;;;5022151;28;20416;-61
2023/10/12 03:18:12;;;;;;;12.25;4.10;;;;;;;;;;5038776;28;20042;-59
2023/10/12 03:20:38;;;;;;;9.07;4.38;;;;;;;;;;5023149;28;20042;-59
2023/10/12 03:23:17;;;;;;;12.13;4.80;;;;;;;;;;5026587;28;20045;-59
2023/10/12 03:25:46;;;;;;;13.20;5.30;;;;;;;;;;5028229;28;20056;-59
2023/10/12 03:28:29;;;;;;;9.85;4.43;;;;;;;;;;5029138;28;20041;-59
2023/10/12 03:33:46;;;;;;;11.70;4.53;;;;;;;;;;5027826;28;20033;-59
2023/10/12 03:36:25;;;;;;;9.35;4.30;;;;;;;;;;5029913;28;20412;-60
2023/10/12 03:39:12;;;;;;;15.57;4.53;;;;;;;;;;5028752;28;20034;-58
2023/10/12 03:44:22;;;;;;;11.45;4.95;;;;;;;;;;5022829;28;20040;-58
2023/10/12 03:46:57;;;;;;;9.15;4.60;;;;;;;;;;5028352;28;20037;-59
2023/10/12 03:52:00;;;;;;;12.23;4.55;;;;;;;;;;5026166;28;20037;-59
2023/10/12 03:54:26;;;;;;;10.13;4.30;;;;;;;;;;5028582;28;20045;-59
2023/10/12 03:56:59;;;;;;;14.63;4.78;;;;;;;;;;5026291;28;20159;-59
2023/10/12 03:59:39;;;;;;;15.90;4.70;;;;;;;;;;5026908;28;20056;-59
2023/10/12 04:02:13;;;;;;;11.23;4.47;;;;;;;;;;5026986;28;20502;-59
2023/10/12 04:04:45;;;;;;;10.15;4.60;;;;;;;;;;5027932;28;20057;-59
2023/10/12 04:07:19;;;;;;;14.00;4.47;;;;;;;;;;5030744;28;20033;-59
2023/10/12 04:09:52;;;;;;;11.02;4.93;;;;;;;;;;5025772;28;20056;-59
2023/10/12 04:14:54;;;;;;;11.60;4.82;;;;;;;;;;5027123;28;20049;-59
2023/10/12 04:20:14;;;;;;;12.68;5.00;;;;;;;;;;5026741;28;20147;-59
2023/10/12 04:25:32;;;;;;;10.27;4.38;;;;;;;;;;5028524;28;20041;-59
2023/10/12 04:30:42;;;;;;;11.07;4.95;;;;;;;;;;5021258;28;20487;-59
2023/10/12 04:33:14;;;;;;;12.40;5.50;;;;;;;;;;5023546;28;20061;-58
2023/10/12 04:38:19;;;;;;;10.77;4.60;;;;;;;;;;5026989;28;20436;-59
2023/10/12 04:41:22;;;;;;;13.48;4.90;;;;;;;;;;5021739;28;20496;-58
2023/10/12 04:43:32;;;;;;;15.35;5.03;;;;;;;;;;5021334;28;20029;-58
2023/10/12 04:48:43;;;;;;;13.23;5.50;;;;;;;;;;5025857;28;20033;-58
2023/10/12 04:51:18;;;;;;;15.48;5.45;;;;;;;;;;5024550;28;20044;-59
2023/10/12 04:53:58;;;;;;;14.35;7.75;;;;;;;;;;5026956;28;20049;-59
2023/10/12 04:56:26;;;;;;;28.73;12.93;;;;;;;;;;5048701;28;20038;-59
2023/10/12 04:58:59;;;;;;;23.58;11.02;;;;;;;;;;5024695;28;20038;-59
2023/10/12 05:01:40;;;;;;;21.33;9.85;;;;;;;;;;5023997;28;20033;-59
2023/10/12 05:04:09;;;;;;;25.30;9.98;;;;;;;;;;5026230;28;20045;-59
2023/10/12 05:06:46;;;;;;;15.38;7.90;;;;;;;;;;5028583;28;20052;-59
2023/10/12 05:09:12;;;;;;;20.17;8.55;;;;;;;;;;5029040;28;20068;-58
2023/10/12 05:11:39;;;;;;;20.23;9.10;;;;;;;;;;5031219;28;20397;-59
2023/10/12 05:14:14;;;;;;;17.63;8.38;;;;;;;;;;5028274;28;20040;-57
2023/10/12 05:16:42;;;;;;;15.38;7.38;;;;;;;;;;5030783;28;20057;-57
2023/10/12 05:19:10;;;;;;;17.37;7.50;;;;;;;;;;5027965;28;20076;-57
2023/10/12 05:21:38;;;;;;;22.70;10.55;;;;;;;;;;5022697;28;20045;-58
2023/10/12 05:24:05;;;;;;;19.65;8.68;;;;;;;;;;5028342;28;20034;-57
2023/10/12 05:26:31;;;;;;;17.63;7.75;;;;;;;;;;5030388;28;20524;-57
2023/10/12 05:29:26;;;;;;;20.73;9.38;;;;;;;;;;5025126;28;20042;-57
2023/10/12 05:31:49;;;;;;;26.15;12.02;;;;;;;;;;5026515;28;20485;-58
2023/10/12 05:34:44;;;;;;;15.43;7.20;;;;;;;;;;5028131;28;20401;-58
2023/10/12 05:39:55;;;;;;;13.00;6.65;;;;;;;;;;5029850;28;20042;-58
2023/10/12 05:42:25;;;;;;;15.48;7.22;;;;;;;;;;5023795;28;20064;-58
2023/10/12 05:44:53;;;;;;;16.85;7.40;;;;;;;;;;5029920;28;20050;-58
2023/10/12 05:47:28;;;;;;;21.20;11.32;;;;;;;;;;5030167;28;20045;-58
2023/10/12 05:49:57;;;;;;;26.55;11.13;;;;;;;;;;5029874;28;20068;-58
2023/10/12 05:52:24;;;;;;;23.63;11.35;;;;;;;;;;5026505;28;20041;-59
2023/10/12 05:54:57;;;;;;;22.20;10.32;;;;;;;;;;5030041;28;20049;-59
2023/10/12 05:57:27;;;;;;;23.33;9.25;;;;;;;;;;5030030;28;20029;-58
2023/10/12 05:59:58;;;;;;;17.90;8.65;;;;;;;;;;5027188;28;20057;-59
2023/10/12 06:02:28;;;;;;;16.73;6.97;;;;;;;;;;5029647;28;20034;-58
2023/10/12 06:04:54;;;;;;;16.13;6.63;;;;;;;;;;5029009;28;20037;-59
2023/10/12 06:07:22;;;;;;;16.17;6.13;;;;;;;;;;5030223;28;20041;-58
2023/10/12 06:09:52;;;;;;;21.13;9.07;;;;;;;;;;5029626;28;20045;-58
2023/10/12 06:12:21;;;;;;;22.40;9.75;;;;;;;;;;5028986;28;20044;-58
2023/10/12 06:14:53;;;;;;;15.20;6.68;;;;;;;;;;5027239;28;20401;-58
2023/10/12 06:17:49;;;;;;;13.15;5.53;;;;;;;;;;5030210;28;20054;-58
2023/10/12 06:20:14;;;;;;;14.32;6.38;;;;;;;;;;5028165;28;20555;-59
2023/10/12 06:22:40;;;;;;;14.70;6.47;;;;;;;;;;5029018;28;20049;-59
2023/10/12 06:25:11;;;;;;;15.05;6.50;;;;;;;;;;5028726;28;20040;-58
2023/10/12 06:27:37;;;;;;;15.50;5.97;;;;;;;;;;5026838;28;20497;-57
2023/10/12 06:30:16;;;;;;;16.23;6.20;;;;;;;;;;5024431;28;20046;-58
2023/10/12 06:32:46;;;;;;;14.30;5.95;;;;;;;;;;5029554;28;20060;-58
2023/10/12 06:45:46;;;;;;;10.15;5.18;;;;;;;;;;5026873;28;20526;-59
2023/10/12 06:51:02;;;;;;;23.67;5.88;;;;;;;;;;5027153;28;20477;-57
2023/10/12 06:53:33;;;;;;;9.18;4.80;;;;;;;;;;5022697;28;20037;-58
2023/10/12 07:01:43;;;;;;;10.55;4.57;;;;;;;;;;5027204;28;20042;-58
2023/10/12 07:04:15;;;;;;;16.95;5.72;;;;;;;;;;5027452;28;20052;-57
2023/10/12 07:06:56;;;;;;;13.88;5.70;;;;;;;;;;5028594;28;20053;-58
2023/10/12 07:12:14;;;;;;;11.25;5.03;;;;;;;;;;5028335;28;20045;-58
2023/10/12 07:15:19;;;;;;;12.63;4.63;;;;;;;;;;5025461;28;20044;-59
2023/10/12 07:17:34;;;;;;;11.65;4.70;;;;;;;;;;5026080;28;20049;-57
2023/10/12 07:20:01;;;;;;;21.10;4.97;;;;;;;;;;5028329;28;20061;-58
2023/10/12 07:22:27;;;;;;;11.20;5.32;;;;;;;;;;5021533;28;20053;-58
2023/10/12 07:24:54;;;;;;;10.65;4.93;;;;;;;;;;5028996;28;20053;-59
2023/10/12 07:27:22;;;;;;;12.40;5.65;;;;;;;;;;5023668;28;20053;-58
2023/10/12 07:30:02;;;;;;;11.10;4.82;;;;;;;;;;5010936;28;20037;-58
2023/10/12 07:32:39;;;;;;;10.73;4.93;;;;;;;;;;5021754;28;20052;-57
2023/10/12 07:35:17;;;;;;;12.38;4.78;;;;;;;;;;5027884;28;20041;-57
2023/10/12 07:37:44;;;;;;;10.65;5.20;;;;;;;;;;5023848;28;20053;-58
2023/10/12 07:40:22;;;;;;;11.32;5.00;;;;;;;;;;5023787;28;20045;-58
2023/10/12 07:42:49;;;;;;;11.63;5.30;;;;;;;;;;5028947;28;20116;-57
2023/10/12 07:45:19;;;;;;;8.70;4.93;;;;;;;;;;5026250;28;20034;-58
2023/10/12 07:48:00;;;;;;;11.15;4.65;;;;;;;;;;5022382;28;20033;-57
2023/10/12 07:50:28;;;;;;;13.90;4.93;;;;;;;;;;5027988;28;20049;-58
2023/10/12 07:53:07;;;;;;;10.77;5.25;;;;;;;;;;5028276;28;20033;-58
2023/10/12 07:55:41;;;;;;;13.05;5.45;;;;;;;;;;5023082;28;20029;-57
2023/10/12 07:58:12;;;;;;;12.50;5.00;;;;;;;;;;5026122;28;20447;-58
2023/10/12 08:00:41;;;;;;;12.60;4.82;;;;;;;;;;5027217;28;20033;-58
2023/10/12 08:13:25;;;;;;;10.50;4.80;;;;;;;;;;5027311;28;20041;-58
2023/10/12 08:15:58;;;;;;;11.90;5.40;;;;;;;;;;5025953;28;20045;-58
2023/10/12 08:24:35;;;;;;;9.25;4.85;;;;;;;;;;5024754;28;20140;-58
2023/10/12 08:26:50;;;;;;;12.20;5.22;;;;;;;;;;5024961;28;20046;-58
2023/10/12 08:39:38;;;;;;;15.23;5.53;;;;;;;;;;5025735;28;20429;-59
2023/10/12 08:44:36;;;;;;;12.35;5.53;;;;;;;;;;5027171;28;20056;-58
2023/10/12 08:47:09;;;;;;;12.95;5.25;;;;;;;;;;5024957;28;20516;-58
2023/10/12 08:49:52;;;;;;;9.82;4.72;;;;;;;;;;5022904;28;20064;-58
2023/10/12 08:52:28;;;;;;;12.70;5.63;;;;;;;;;;5025606;28;20041;-58
2023/10/12 08:55:03;;;;;;;15.40;5.57;;;;;;;;;;5026642;28;20056;-58
2023/10/12 08:57:37;;;;;;;10.70;5.78;;;;;;;;;;5027977;28;20057;-58
2023/10/12 09:02:54;;;;;;;13.23;5.43;;;;;;;;;;5025415;28;20037;-58
2023/10/12 09:05:30;;;;;;;13.55;5.40;;;;;;;;;;5026476;28;20052;-58
2023/10/12 09:08:24;;;;;;;13.70;5.47;;;;;;;;;;5026755;28;20029;-58
2023/10/12 09:13:37;;;;;;;14.18;5.90;;;;;;;;;;5026124;28;20040;-58
2023/10/12 09:16:06;;;;;;;12.35;5.97;;;;;;;;;;5025972;28;20057;-58
2023/10/12 09:18:35;;;;;;;13.40;5.93;;;;;;;;;;5026887;28;20049;-58
2023/10/12 09:29:23;;;;;;;17.85;6.65;;;;;;;;;;5022330;28;20033;-57
2023/10/12 09:36:29;;;;;;;15.93;6.07;;;;;;;;;;5019701;28;20056;-58
2023/10/12 09:38:56;;;;;;;14.38;5.75;;;;;;;;;;5027558;28;20029;-58
2023/10/12 09:41:29;;;;;;;15.85;5.80;;;;;;;;;;5025443;28;20694;-58
2023/10/12 09:43:56;;;;;;;14.35;6.07;;;;;;;;;;5033348;28;20140;-58
2023/10/12 09:46:25;;;;;;;16.67;6.18;;;;;;;;;;5020829;28;20429;-58
2023/10/12 09:49:02;;;;;;;14.30;6.38;;;;;;;;;;5025859;28;20412;-58
2023/10/12 09:51:35;;;;;;;11.50;6.50;;;;;;;;;;5021203;28;20404;-58
2023/10/12 09:54:09;;;;;;;14.35;6.30;;;;;;;;;;5029924;28;20122;-58
2023/10/12 09:56:45;;;;;;;14.73;6.28;;;;;;;;;;5024597;28;20049;-58
2023/10/12 09:59:18;;;;;;;15.43;6.70;;;;;;;;;;5028351;28;20045;-58
2023/10/12 10:07:15;;;;;;;16.05;6.85;;;;;;;;;;5030464;28;20033;-58
2023/10/12 10:09:48;;;;;;;17.98;6.80;;;;;;;;;;5027526;28;20382;-58
2023/10/12 10:12:16;;;;;;;19.05;6.68;;;;;;;;;;5029689;28;20044;-59
2023/10/12 10:14:47;;;;;;;13.48;7.20;;;;;;;;;;5025802;28;20033;-58
2023/10/12 10:17:16;;;;;;;15.27;6.53;;;;;;;;;;5024361;28;20044;-58
2023/10/12 10:19:44;;;;;;;13.90;6.57;;;;;;;;;;5029841;28;20037;-58
2023/10/12 10:22:14;;;;;;;19.52;6.95;;;;;;;;;;5022427;28;20034;-58
2023/10/12 10:24:46;;;;;;;13.68;6.43;;;;;;;;;;5024463;28;20056;-57
2023/10/12 10:27:13;;;;;;;18.05;6.22;;;;;;;;;;5028800;28;20421;-58
2023/10/12 10:29:56;;;;;;;19.50;7.55;;;;;;;;;;5030330;28;20072;-58
2023/10/12 10:32:29;;;;;;;16.88;7.03;;;;;;;;;;5029307;28;20041;-58
2023/10/12 10:35:04;;;;;;;14.98;6.55;;;;;;;;;;5021795;28;20049;-58
2023/10/12 10:37:57;;;;;;;15.25;6.45;;;;;;;;;;5023601;28;20050;-58
2023/10/12 10:40:48;;;;;;;15.82;6.65;;;;;;;;;;5030163;28;20041;-58
2023/10/12 10:43:17;;;;;;;16.30;6.85;;;;;;;;;;5026920;28;20175;-58
2023/10/12 10:45:56;;;;;;;19.60;6.97;;;;;;;;;;5028421;28;20386;-58
2023/10/12 10:48:27;;;;;;;16.55;6.72;;;;;;;;;;5029016;28;20033;-58
2023/10/12 10:50:54;;;;;;;18.63;7.22;;;;;;;;;;5029268;28;20049;-58
2023/10/12 10:53:20;;;;;;;16.08;7.10;;;;;;;;;;5027204;28;20056;-59
2023/10/12 10:55:51;;;;;;;14.85;7.93;;;;;;;;;;5029094;28;20048;-58
2023/10/12 10:58:22;;;;;;;14.55;6.95;;;;;;;;;;5028880;28;20037;-59
2023/10/12 11:00:56;;;;;;;17.25;7.15;;;;;;;;;;5026473;28;20056;-59
2023/10/12 11:03:23;;;;;;;11.88;6.78;;;;;;;;;;5023681;28;20116;-59
2023/10/12 11:05:49;;;;;;;19.63;7.50;;;;;;;;;;5026415;28;20048;-58
2023/10/12 11:08:27;;;;;;;14.52;7.57;;;;;;;;;;5024920;28;20045;-59
2023/10/12 11:13:52;;;;;;;15.43;6.90;;;;;;;;;;5034395;28;20509;-57
2023/10/12 11:16:28;;;;;;;17.88;7.50;;;;;;;;;;5027821;28;20060;-59
2023/10/12 11:18:57;;;;;;;19.50;8.43;;;;;;;;;;5025990;28;20033;-59
2023/10/12 11:21:28;;;;;;;14.48;6.60;;;;;;;;;;5028003;28;20418;-59
2023/10/12 11:24:01;;;;;;;16.33;7.93;;;;;;;;;;5028493;28;20045;-59
2023/10/12 11:26:28;;;;;;;19.23;7.82;;;;;;;;;;5026420;28;20041;-59
2023/10/12 11:29:04;;;;;;;20.00;8.45;;;;;;;;;;5025204;28;20052;-58
2023/10/12 11:31:30;;;;;;;17.85;8.40;;;;;;;;;;5021512;28;20053;-58
2023/10/12 11:34:07;;;;;;;18.65;8.18;;;;;;;;;;5021495;28;20033;-57
2023/10/12 11:36:35;;;;;;;17.08;7.50;;;;;;;;;;5021944;28;20040;-58
2023/10/12 11:39:28;;;;;;;17.63;7.40;;;;;;;;;;5028599;28;20049;-59
2023/10/12 11:42:14;;;;;;;14.70;7.72;;;;;;;;;;5023941;28;20485;-58
2023/10/12 11:44:45;;;;;;;15.80;6.78;;;;;;;;;;5028294;28;20053;-58
2023/10/12 11:47:13;;;;;;;16.85;7.43;;;;;;;;;;5028590;28;20061;-59
2023/10/12 11:50:09;;;;;;;18.08;7.40;;;;;;;;;;5029173;28;20041;-58
2023/10/12 11:52:37;;;;;;;19.65;7.55;;;;;;;;;;5021692;28;20041;-59
2023/10/12 11:55:27;;;;;;;16.02;7.03;;;;;;;;;;5027445;28;20493;-58
2023/10/12 11:57:59;;;;;;;17.20;8.13;;;;;;;;;;5026697;28;20060;-58
2023/10/12 12:00:36;;;;;;;21.42;7.78;;;;;;;;;;5027963;28;20664;-58
2023/10/12 12:03:08;;;;;;;18.73;7.38;;;;;;;;;;5028048;28;20045;-59
2023/10/12 12:05:36;;;;;;;20.33;6.63;;;;;;;;;;5020353;28;20113;-58
2023/10/12 12:08:14;;;;;;;19.13;7.45;;;;;;;;;;5027740;28;20025;-61
2023/10/12 12:13:20;;;;;;;13.90;7.05;;;;;;;;;;5027784;28;20046;-58
2023/10/12 12:15:47;;;;;;;15.82;6.35;;;;;;;;;;5023786;28;20504;-59
2023/10/12 12:18:21;;;;;;;14.32;6.50;;;;;;;;;;5022238;28;20045;-59
2023/10/12 12:20:52;;;;;;;16.80;6.93;;;;;;;;;;5023145;28;20045;-59
2023/10/12 12:23:19;;;;;;;15.35;7.43;;;;;;;;;;5025127;28;20045;-59
2023/10/12 12:25:46;;;;;;;16.17;6.93;;;;;;;;;;5027183;28;20513;-59
2023/10/12 12:28:16;;;;;;;14.90;6.35;;;;;;;;;;5020461;28;20062;-59
2023/10/12 12:30:46;;;;;;;22.27;7.10;;;;;;;;;;5022652;28;20033;-59
2023/10/12 12:33:15;;;;;;;15.38;6.57;;;;;;;;;;5020319;28;20033;-58
2023/10/12 12:35:45;;;;;;;19.90;6.75;;;;;;;;;;5027462;28;20063;-58
2023/10/12 12:38:48;;;;;;;15.57;7.25;;;;;;;;;;5027905;28;20045;-59
2023/10/12 12:41:19;;;;;;;19.92;6.63;;;;;;;;;;5026699;28;20056;-59
2023/10/12 12:43:49;;;;;;;16.58;6.15;;;;;;;;;;5027842;28;20052;-58
2023/10/12 12:46:19;;;;;;;14.57;6.38;;;;;;;;;;5026536;28;20215;-58
2023/10/12 12:48:54;;;;;;;19.20;6.55;;;;;;;;;;5027753;28;20025;-58
2023/10/12 12:51:21;;;;;;;18.25;6.45;;;;;;;;;;5024997;28;20485;-59
2023/10/12 12:53:49;;;;;;;15.40;6.43;;;;;;;;;;5023389;28;20049;-58
2023/10/12 12:56:17;;;;;;;16.52;6.47;;;;;;;;;;5026791;28;20390;-58
2023/10/12 12:58:48;;;;;;;16.27;6.43;;;;;;;;;;5023566;28;20045;-58
2023/10/12 13:01:23;;;;;;;19.52;6.72;;;;;;;;;;5023901;28;20041;-59
2023/10/12 13:03:55;;;;;;;13.85;6.03;;;;;;;;;;5026942;28;20030;-59
2023/10/12 13:06:22;;;;;;;14.50;6.63;;;;;;;;;;5026264;28;20382;-59
2023/10/12 13:08:48;;;;;;;17.77;6.28;;;;;;;;;;5024830;28;20026;-59
2023/10/12 13:11:21;;;;;;;14.20;6.25;;;;;;;;;;5024214;28;20071;-59
2023/10/12 13:13:48;;;;;;;12.13;6.15;;;;;;;;;;5027748;28;20041;-59
2023/10/12 13:16:14;;;;;;;15.35;6.38;;;;;;;;;;5022966;28;20041;-59
2023/10/12 13:18:46;;;;;;;15.57;5.82;;;;;;;;;;5019668;28;20030;-59
2023/10/12 13:21:15;;;;;;;11.43;6.28;;;;;;;;;;5017648;28;20045;-59
2023/10/12 13:23:44;;;;;;;13.63;5.63;;;;;;;;;;5022385;28;20490;-59
2023/10/12 13:26:12;;;;;;;19.10;6.70;;;;;;;;;;5028065;28;20045;-60
2023/10/12 13:28:41;;;;;;;;;;;;;;;;;;5022743;28;20033;-59
2023/10/12 13:31:10;;;;;;;13.43;6.03;;;;;;;;;;5022656;28;19925;-59
2023/10/12 13:33:37;;;;;;;11.52;6.00;;;;;;;;;;5031296;28;20045;-59
2023/10/12 13:36:05;;;;;;;14.93;6.40;;;;;;;;;;5030948;28;20060;-59
2023/10/12 13:38:36;;;;;;;14.60;6.68;;;;;;;;;;5022156;28;20413;-59
2023/10/12 13:41:02;;;;;;;12.98;5.80;;;;;;;;;;5030443;28;20034;-58
2023/10/12 13:43:32;;;;;;;11.45;5.53;;;;;;;;;;5029401;28;20054;-57
2023/10/12 13:45:59;;;;;;;11.07;5.80;;;;;;;;;;5027661;28;20037;-58
2023/10/12 13:48:29;;;;;;;15.40;5.57;;;;;;;;;;5028674;28;20052;-59
2023/10/12 13:51:08;;;;;;;11.38;5.68;;;;;;;;;;5028655;28;20497;-58
2023/10/12 13:53:37;;;;;;;10.85;5.55;;;;;;;;;;5024556;28;20042;-58
2023/10/12 13:56:09;;;;;;;15.90;5.50;;;;;;;;;;5031400;28;20049;-58
2023/10/12 13:58:36;;;;;;;14.20;5.60;;;;;;;;;;5027705;28;20045;-58
2023/10/12 14:01:03;;;;;;;10.35;5.35;;;;;;;;;;5030136;28;20049;-58
2023/10/12 14:03:34;;;;;;;14.18;5.90;;;;;;;;;;5026893;28;20057;-58
2023/10/12 14:06:08;;;;;;;9.45;5.53;;;;;;;;;;5025977;28;20382;-58
2023/10/12 14:08:40;;;;;;;14.80;6.30;;;;;;;;;;5023360;28;20041;-58
2023/10/12 14:11:12;;;;;;;9.20;4.80;;;;;;;;;;5029383;28;20033;-58
2023/10/12 14:13:38;;;;;;;8.57;5.20;;;;;;;;;;5029406;28;20065;-58
2023/10/12 14:16:10;;;;;;;12.48;5.32;;;;;;;;;;5030527;28;20046;-58
2023/10/12 14:18:37;;;;;;;12.65;5.75;;;;;;;;;;5026443;28;20038;-59
2023/10/12 14:21:09;;;;;;;12.88;6.05;;;;;;;;;;5023438;28;20032;-58
2023/10/12 14:23:40;;;;;;;10.63;5.45;;;;;;;;;;5023820;28;20054;-59
2023/10/12 14:26:10;;;;;;;13.90;5.50;;;;;;;;;;5030025;28;20045;-58
2023/10/12 14:28:36;;;;;;;11.23;4.90;;;;;;;;;;5029532;28;20033;-59
2023/10/12 14:31:05;;;;;;;11.35;4.60;;;;;;;;;;5029459;28;20036;-58
2023/10/12 14:33:32;;;;;;;14.50;5.53;;;;;;;;;;5025822;28;20410;-59
2023/10/12 14:35:58;;;;;;;12.35;5.35;;;;;;;;;;5030106;28;20539;-58
2023/10/12 14:38:24;;;;;;;15.50;5.22;;;;;;;;;;5027785;28;20041;-58
2023/10/12 14:40:51;;;;;;;12.18;5.45;;;;;;;;;;5028484;28;20046;-59
2023/10/12 14:43:21;;;;;;;20.70;5.55;;;;;;;;;;5029261;28;20489;-58
2023/10/12 14:45:55;;;;;;;13.15;4.70;;;;;;;;;;5009808;28;20052;-59
2023/10/12 14:48:22;;;;;;;10.48;5.15;;;;;;;;;;5030394;28;20428;-59
2023/10/12 14:51:09;;;;;;;10.30;5.18;;;;;;;;;;5029341;28;20033;-59
2023/10/12 14:53:35;;;;;;;15.25;5.10;;;;;;;;;;5042214;28;20036;-59
2023/10/12 14:56:03;;;;;;;9.85;4.72;;;;;;;;;;5030258;28;20045;-59
2023/10/12 14:58:30;;;;;;;9.82;4.65;;;;;;;;;;5029437;28;20048;-58
2023/10/12 15:00:57;;;;;;;9.55;4.93;;;;;;;;;;4987625;28;20414;-59
2023/10/12 15:03:23;;;;;;;10.05;4.60;;;;;;;;;;5026360;28;20489;-58
2023/10/12 15:05:53;;;;;;;14.02;5.30;;;;;;;;;;5029424;28;20053;-58
2023/10/12 15:08:20;;;;;;;8.23;4.72;;;;;;;;;;5029056;28;20053;-58
2023/10/12 15:10:47;;;;;;;13.27;5.07;;;;;;;;;;5029552;28;20049;-58
2023/10/12 15:13:14;;;;;;;9.68;4.80;;;;;;;;;;5028857;28;20038;-58
2023/10/12 15:15:45;;;;;;;9.45;4.38;;;;;;;;;;5028785;28;20037;-58
2023/10/12 15:18:15;;;;;;;8.23;4.35;;;;;;;;;;5027208;28;20768;-58
2023/10/12 15:20:44;;;;;;;13.88;4.50;;;;;;;;;;5024558;28;20034;-58
2023/10/12 15:23:11;;;;;;;8.32;4.30;;;;;;;;;;5028582;28;20037;-58
2023/10/12 15:25:37;;;;;;;11.15;4.05;;;;;;;;;;5025031;28;20041;-58
2023/10/12 15:28:06;;;;;;;9.52;4.43;;;;;;;;;;5029724;28;20052;-58
2023/10/12 15:30:33;;;;;;;11.27;4.32;;;;;;;;;;5028774;28;20052;-58
2023/10/12 15:33:00;;;;;;;10.30;4.68;;;;;;;;;;5029514;28;20037;-58
2023/10/12 15:35:28;;;;;;;16.30;4.30;;;;;;;;;;5028189;28;20052;-58
2023/10/12 15:37:57;;;;;;;11.65;4.70;;;;;;;;;;5029142;28;20049;-59
2023/10/12 15:40:25;;;;;;;12.23;4.57;;;;;;;;;;5027612;28;20045;-59
2023/10/12 15:42:55;;;;;;;7.85;3.92;;;;;;;;;;5028336;28;20394;-59
2023/10/12 15:45:26;;;;;;;14.60;4.35;;;;;;;;;;5024949;28;20042;-59
2023/10/12 15:47:56;;;;;;;12.18;4.18;;;;;;;;;;5028698;28;20068;-59
2023/10/12 15:50:24;;;;;;;9.00;3.78;;;;;;;;;;5027768;28;20048;-59
2023/10/12 15:52:51;;;;;;;8.27;4.03;;;;;;;;;;5029005;28;20041;-60
2023/10/12 15:55:18;;;;;;;13.80;4.47;;;;;;;;;;5024654;28;20052;-59
2023/10/12 15:57:46;;;;;;;8.90;4.32;;;;;;;;;;5027910;28;20414;-59
2023/10/12 16:00:23;;;;;;;13.48;5.18;;;;;;;;;;5023571;28;20490;-59
2023/10/12 16:02:55;;;;;;;11.35;4.00;;;;;;;;;;5028524;28;20044;-58
2023/10/12 16:05:23;;;;;;;6.43;3.90;;;;;;;;;;5026266;28;20041;-59
2023/10/12 16:07:50;;;;;;;10.50;4.30;;;;;;;;;;5023730;28;20052;-58
2023/10/12 16:10:18;;;;;;;7.85;3.95;;;;;;;;;;5027699;28;20052;-59
2023/10/12 16:12:45;;;;;;;11.93;4.03;;;;;;;;;;5028900;28;20044;-59
2023/10/12 16:15:15;;;;;;;7.03;3.83;;;;;;;;;;5027590;28;20042;-59
2023/10/12 16:17:42;;;;;;;7.07;4.03;;;;;;;;;;5024966;28;20048;-57
2023/10/12 16:20:10;;;;;;;9.02;3.80;;;;;;;;;;5024731;28;20049;-56
2023/10/12 16:22:43;;;;;;;15.02;3.85;;;;;;;;;;5019947;28;20044;-57
2023/10/12 16:25:09;;;;;;;11.27;3.83;;;;;;;;;;5023595;28;20605;-57
2023/10/12 16:27:35;;;;;;;9.65;4.30;;;;;;;;;;5025259;28;20052;-57
2023/10/12 16:30:11;;;;;;;11.88;3.97;;;;;;;;;;5021260;28;20053;-56
2023/10/12 16:32:37;;;;;;;11.15;4.35;;;;;;;;;;5024172;28;20029;-56
2023/10/12 16:35:05;;;;;;;12.55;4.00;;;;;;;;;;5024343;28;20025;-56
2023/10/12 16:37:32;;;;;;;9.13;3.90;;;;;;;;;;5020392;28;20045;-56
2023/10/12 16:39:58;;;;;;;8.68;3.67;;;;;;;;;;5030808;28;20041;-56
2023/10/12 16:42:24;;;;;;;7.80;3.90;;;;;;;;;;5019737;28;20061;-57
2023/10/12 16:44:50;;;;;;;10.27;4.30;;;;;;;;;;5024699;28;20033;-56
2023/10/12 16:47:19;;;;;;;9.73;3.85;;;;;;;;;;5023670;28;20034;-56
2023/10/12 16:49:45;;;;;;;8.80;4.43;;;;;;;;;;5023419;28;20036;-56
2023/10/12 16:52:12;;;;;;;9.43;4.40;;;;;;;;;;5021825;28;20053;-57
2023/10/12 16:54:40;;;;;;;5.78;3.40;;;;;;;;;;5025161;28;20025;-57
2023/10/12 16:57:06;;;;;;;11.43;3.90;;;;;;;;;;5021816;28;20049;-58
2023/10/12 16:59:33;;;;;;;11.55;4.45;;;;;;;;;;5019272;28;20648;-58
2023/10/12 17:01:59;;;;;;;12.30;3.90;;;;;;;;;;5018447;28;20089;-58
2023/10/12 17:04:49;;;;;;;13.35;3.90;;;;;;;;;;5018150;28;20045;-58
2023/10/12 17:07:16;;;;;;;8.80;3.33;;;;;;;;;;5024108;28;20045;-58
2023/10/12 17:09:42;;;;;;;12.50;3.60;;;;;;;;;;5028455;28;20043;-59
2023/10/12 17:12:12;;;;;;;8.40;3.90;;;;;;;;;;5027238;28;20029;-59